createdAt,value
2018-09-06T00:00:54.985Z,19.47
2018-09-06T00:05:57.362Z,18.77
2018-09-06T00:11:00.594Z,15.30
2018-09-06T00:16:03.626Z,22.93
2018-09-06T00:21:06.247Z,14.87
2018-09-06T00:26:09.572Z,19.63
2018-09-06T00:31:12.006Z,22.83
2018-09-06T00:36:15.778Z,13.67
2018-09-06T00:41:18.055Z,28.73
2018-09-06T00:46:20.241Z,17.77
2018-09-06T00:51:25.239Z,19.77
2018-09-06T00:56:28.568Z,17.90
2018-09-06T01:01:30.970Z,15.73
2018-09-06T01:06:35.405Z,21.50
2018-09-06T01:11:37.905Z,17.20
2018-09-06T01:16:40.073Z,17.27
2018-09-06T01:21:44.057Z,16.77
2018-09-06T01:26:46.661Z,16.80
2018-09-06T01:31:50.900Z,19.47
2018-09-06T01:36:56.820Z,18.03
2018-09-06T01:42:00.333Z,22.93
2018-09-06T01:47:02.644Z,16.00
2018-09-06T01:52:05.064Z,20.07
2018-09-06T01:57:09.290Z,16.93
2018-09-06T02:02:11.513Z,21.07
2018-09-06T02:07:13.689Z,19.17
2018-09-06T02:12:15.853Z,21.10
2018-09-06T02:17:18.229Z,19.03
2018-09-06T02:22:24.154Z,20.53
2018-09-06T02:27:26.981Z,21.73
2018-09-06T02:32:29.142Z,21.67
2018-09-06T02:37:32.521Z,20.73
2018-09-06T02:42:35.006Z,20.60
2018-09-06T02:47:41.780Z,18.70
2018-09-06T02:52:44.741Z,18.97
2018-09-06T02:57:47.181Z,21.17
2018-09-06T03:02:50.977Z,21.00
2018-09-06T03:07:54.293Z,23.13
2018-09-06T03:12:57.101Z,21.33
2018-09-06T03:17:59.478Z,22.20
2018-09-06T03:23:02.493Z,20.40
2018-09-06T03:28:07.378Z,28.90
2018-09-06T03:33:10.765Z,23.87
2018-09-06T03:38:14.081Z,20.70
2018-09-06T03:43:16.300Z,24.30
2018-09-06T03:48:18.466Z,20.80
2018-09-06T03:53:20.710Z,23.03
2018-09-06T03:58:22.905Z,23.87
2018-09-06T04:03:25.065Z,25.37
2018-09-06T04:08:27.270Z,22.20
2018-09-06T04:13:30.921Z,22.80
2018-09-06T04:18:33.083Z,20.13
2018-09-06T04:23:35.266Z,31.30
2018-09-06T04:28:40.004Z,26.10
2018-09-06T04:33:42.408Z,23.17
2018-09-06T04:38:44.586Z,26.60
2018-09-06T04:43:49.007Z,36.47
2018-09-06T04:48:53.154Z,25.03
2018-09-06T04:53:55.650Z,31.97
2018-09-06T04:58:58.437Z,32.63
2018-09-06T05:04:00.710Z,31.10
2018-09-06T05:09:05.253Z,25.70
2018-09-06T05:14:07.673Z,27.00
2018-09-06T05:19:10.078Z,28.00
2018-09-06T05:24:12.233Z,26.80
2018-09-06T05:29:14.381Z,23.07
2018-09-06T05:34:16.525Z,26.93
2018-09-06T05:39:19.750Z,23.90
2018-09-06T05:44:22.969Z,24.07
2018-09-06T05:49:25.154Z,26.67
2018-09-06T05:54:27.293Z,23.87
2018-09-06T05:59:29.465Z,20.10
2018-09-06T06:04:32.047Z,27.53
2018-09-06T06:09:37.128Z,23.13
2018-09-06T06:14:39.405Z,23.97
2018-09-06T06:19:41.557Z,22.37
2018-09-06T06:24:43.716Z,28.63
2018-09-06T06:29:45.878Z,22.17
2018-09-06T06:34:48.069Z,23.93
2018-09-06T06:39:51.272Z,22.40
2018-09-06T06:44:53.337Z,24.87
2018-09-06T06:49:55.489Z,23.90
2018-09-06T06:54:58.474Z,25.37
2018-09-06T07:00:03.202Z,23.17
2018-09-06T07:05:07.400Z,20.23
2018-09-06T07:10:11.800Z,22.60
2018-09-06T07:15:14.514Z,35.07
2018-09-06T07:20:17.134Z,21.13
2018-09-06T07:25:19.298Z,21.80
2018-09-06T07:30:21.452Z,24.93
2018-09-06T07:35:23.738Z,24.73
2018-09-06T07:40:26.124Z,19.23
2018-09-06T07:45:29.286Z,19.83
2018-09-06T07:50:31.446Z,17.80
2018-09-06T07:55:35.348Z,21.37
2018-09-06T08:00:40.366Z,23.83
2018-09-06T08:05:43.420Z,20.60
2018-09-06T08:10:46.029Z,18.73
2018-09-06T08:15:48.297Z,21.10
2018-09-06T08:20:50.493Z,23.73
2018-09-06T08:25:53.089Z,19.20
2018-09-06T08:30:55.807Z,19.03
2018-09-06T08:35:59.585Z,18.83
2018-09-06T08:41:01.841Z,16.83
2018-09-06T08:46:04.061Z,20.43
2018-09-06T08:51:06.564Z,19.40
2018-09-06T08:56:09.239Z,18.57
2018-09-06T09:01:17.436Z,27.93
2018-09-06T09:06:19.653Z,33.43
2018-09-06T09:11:22.241Z,29.07
2018-09-06T09:16:24.509Z,21.97
2018-09-06T09:21:26.687Z,12.50
2018-09-06T09:26:28.829Z,16.30
2018-09-06T09:31:31.738Z,15.97
2018-09-06T09:36:35.410Z,15.60
2018-09-06T09:41:37.578Z,30.77
2018-09-06T09:51:41.578Z,18.13
2018-09-06T09:56:43.746Z,20.77
2018-09-06T10:01:51.960Z,19.00
2018-09-06T10:07:00.450Z,20.37
2018-09-06T10:12:02.890Z,29.87
2018-09-06T10:17:05.129Z,29.27
2018-09-06T10:22:07.297Z,31.03
2018-09-06T10:27:09.493Z,32.90
2018-09-06T10:32:11.898Z,34.50
2018-09-06T10:37:15.531Z,37.43
2018-09-06T10:42:17.739Z,30.73
2018-09-06T10:47:19.931Z,29.17
2018-09-06T10:52:23.094Z,29.53
2018-09-06T10:57:28.739Z,28.10
2018-09-06T11:02:31.013Z,28.20
2018-09-06T11:07:34.313Z,24.13
2018-09-06T11:12:36.601Z,22.33
2018-09-06T11:17:38.806Z,23.00
2018-09-06T11:22:41.212Z,17.80
2018-09-06T11:27:43.176Z,19.47
2018-09-06T11:32:45.291Z,20.60
2018-09-06T11:37:47.493Z,20.57
2018-09-06T11:42:49.661Z,22.43
2018-09-06T11:47:52.234Z,23.50
2018-09-06T11:52:54.410Z,19.53
2018-09-06T11:57:56.701Z,21.27
2018-09-06T12:02:59.476Z,22.30
2018-09-06T12:08:02.005Z,25.80
2018-09-06T12:13:04.344Z,26.07
2018-09-06T12:18:06.594Z,23.40
2018-09-06T12:23:08.979Z,26.00
2018-09-06T12:28:11.470Z,23.90
2018-09-06T12:33:13.935Z,24.10
2018-09-06T12:38:16.422Z,26.60
2018-09-06T12:43:19.563Z,24.77
2018-09-06T12:48:21.737Z,24.83
2018-09-06T12:53:24.218Z,29.93
2018-09-06T12:58:27.101Z,30.00
2018-09-06T13:03:29.928Z,28.83
2018-09-06T13:08:33.550Z,28.73
2018-09-06T13:13:36.670Z,26.57
2018-09-06T13:18:39.196Z,29.13
2018-09-06T13:23:41.294Z,34.77
2018-09-06T13:28:44.300Z,28.57
2018-09-06T13:33:46.817Z,27.53
2018-09-06T13:38:49.010Z,26.43
2018-09-06T13:43:51.420Z,24.97
2018-09-06T13:48:53.836Z,21.27
2018-09-06T13:53:56.181Z,25.87
2018-09-06T13:58:58.860Z,24.17
2018-09-06T14:04:01.367Z,23.43
2018-09-06T14:09:04.477Z,25.77
2018-09-06T14:14:06.914Z,23.13
2018-09-06T14:19:09.257Z,20.50
2018-09-06T14:24:11.661Z,22.20
2018-09-06T14:29:14.070Z,14.63
2018-09-06T14:34:16.546Z,13.77
2018-09-06T14:39:18.818Z,20.53
2018-09-06T14:44:21.232Z,19.90
2018-09-06T14:49:23.734Z,21.90
2018-09-06T14:54:25.928Z,17.00
2018-09-06T14:59:28.346Z,19.67
2018-09-06T15:04:31.281Z,21.70
2018-09-06T15:09:33.935Z,25.37
2018-09-06T15:14:36.563Z,19.43
2018-09-06T15:19:38.758Z,20.10
2018-09-06T15:24:40.921Z,18.60
2018-09-06T15:29:43.289Z,14.03
2018-09-06T15:34:45.489Z,19.00
2018-09-06T15:39:47.898Z,17.90
2018-09-06T15:44:50.113Z,11.83
2018-09-06T15:49:53.912Z,10.70
2018-09-06T15:54:56.568Z,10.33
2018-09-06T15:59:59.181Z,12.30
2018-09-06T16:05:01.394Z,11.50
2018-09-06T16:10:03.602Z,14.43
2018-09-06T16:15:06.875Z,13.73
2018-09-06T16:20:09.125Z,13.60
2018-09-06T16:25:13.107Z,18.17
2018-09-06T16:30:17.777Z,16.33
2018-09-06T16:35:22.105Z,17.03
2018-09-06T16:40:24.438Z,17.00
2018-09-06T16:45:26.584Z,18.73
2018-09-06T16:50:28.790Z,16.90
2018-09-06T16:55:31.939Z,16.50
2018-09-06T17:00:35.359Z,18.77
2018-09-06T17:05:38.061Z,18.80
2018-09-06T17:10:40.269Z,16.33
2018-09-06T17:15:42.436Z,24.47
2018-09-06T17:20:45.236Z,21.90
2018-09-06T17:25:47.385Z,26.97
2018-09-06T17:30:51.490Z,18.13
2018-09-06T17:35:53.690Z,23.40
2018-09-06T17:40:56.501Z,17.33
2018-09-06T17:45:58.773Z,22.43
2018-09-06T17:51:01.949Z,21.10
2018-09-06T17:56:04.926Z,18.27
2018-09-06T18:01:24.456Z,21.67
2018-09-06T18:06:27.562Z,18.40
2018-09-06T18:11:30.815Z,17.50
2018-09-06T18:16:33.245Z,18.00
2018-09-06T18:21:35.417Z,19.10
2018-09-06T18:26:37.998Z,20.60
2018-09-06T18:31:40.188Z,25.50
2018-09-06T18:36:42.321Z,21.40
2018-09-06T18:41:45.462Z,21.07
2018-09-06T18:46:48.938Z,26.23
2018-09-06T18:51:51.118Z,25.47
2018-09-06T18:56:53.358Z,27.63
2018-09-06T19:01:55.617Z,27.47
2018-09-06T19:06:57.754Z,26.73
2018-09-06T19:11:59.944Z,34.33
2018-09-06T19:17:02.412Z,33.30
2018-09-06T19:22:04.864Z,32.33
2018-09-06T19:27:07.280Z,30.40
2018-09-06T19:32:09.690Z,34.80
2018-09-06T19:37:11.901Z,36.93
2018-09-06T19:42:14.062Z,36.70
2018-09-06T19:47:16.218Z,41.03
2018-09-06T19:52:18.378Z,38.60
2018-09-06T19:57:20.577Z,41.00
2018-09-06T20:02:23.198Z,42.20
2018-09-06T20:07:25.925Z,48.83
2018-09-06T20:12:36.273Z,43.30
2018-09-06T20:17:38.487Z,48.13
2018-09-06T20:22:41.649Z,57.90
2018-09-06T20:27:44.265Z,55.53
2018-09-06T20:32:46.943Z,56.00
2018-09-06T20:37:50.198Z,61.43
2018-09-06T20:42:52.608Z,71.43
2018-09-06T20:47:54.814Z,77.80
2018-09-06T20:52:56.944Z,72.10
2018-09-06T20:57:59.093Z,83.43
2018-09-06T21:03:01.336Z,84.80
2018-09-06T21:08:04.278Z,86.80
2018-09-06T21:13:06.437Z,82.80
2018-09-06T21:18:09.646Z,88.67
2018-09-06T21:23:11.882Z,100.77
2018-09-06T21:28:14.300Z,94.40
2018-09-06T21:33:16.594Z,84.47
2018-09-06T21:38:18.774Z,98.20
2018-09-06T21:43:21.625Z,86.97
2018-09-06T21:48:24.367Z,91.50
2018-09-06T21:53:26.658Z,91.13
2018-09-06T21:58:28.950Z,94.77
2018-09-06T22:03:36.822Z,87.80
2018-09-06T22:08:39.513Z,94.63
2018-09-06T22:13:42.042Z,88.70
2018-09-06T22:18:44.730Z,83.37
2018-09-06T22:23:48.321Z,90.67
2018-09-06T22:28:50.530Z,85.43
2018-09-06T22:33:52.716Z,94.23
2018-09-06T22:38:54.961Z,100.50
2018-09-06T22:43:57.633Z,102.17
2018-09-06T22:48:59.925Z,89.70
2018-09-06T22:54:02.449Z,89.93
2018-09-06T22:59:04.770Z,94.93
2018-09-06T23:04:06.943Z,97.17
2018-09-06T23:09:09.369Z,97.20
2018-09-06T23:14:11.576Z,94.77
2018-09-06T23:19:14.056Z,90.90
2018-09-06T23:24:16.214Z,89.90
2018-09-06T23:29:18.569Z,99.57
2018-09-06T23:34:21.796Z,97.43
2018-09-06T23:39:23.945Z,120.53
2018-09-06T23:44:26.130Z,96.43
2018-09-06T23:49:28.342Z,108.67
2018-09-06T23:54:30.565Z,96.83
2018-09-06T23:59:32.801Z,104.37
